Bookmark and Share
Track history (hours):
 

Bretagne

Operator: Brittany Ferries

Last reported at 2014-Apr-17 22:33 UTC. Time now 2014-Apr-18 13:17 UTC.
Position N 50°14' W 001°31'.

Length 151 m; beam 27 m.

Type: Passenger vessel. MMSI: 227286000.

NotesDate/timePositionNaut miles runAvg speedWind from/ knotsBaromVisibWave heightAir tempDewpointWater temp
2014-Apr-17 22:33N 50°14' W 001°31'1313.3
2014-Apr-17 21:33N 50°25' W 001°19'1312.5
2014-Apr-17 20:34N 50°36' W 001°09'1110.6
2014-Apr-17 19:34N 50°46' W 001°05'2 2.4
2014-Apr-17 18:33N 50°49' W 001°06'0 0.0
2014-Apr-17 17:34N 50°49' W 001°06'3 3.5
2014-Apr-17 16:34N 50°45' W 001°05'1413.5
2014-Apr-17 15:33N 50°32' W 001°12'1514.9
2014-Apr-17 14:33N 50°20' W 001°25'1716.6
2014-Apr-17 13:33N 50°06' W 001°39'2018.2
2014-Apr-17 12:27N 49°49' W 001°57'7111.7
2014-Apr-17 06:24N 48°38' W 002°02'1411.0
2014-Apr-17 05:06N 48°50' W 002°14'3212.4
2014-Apr-17 02:30N 49°22' W 002°19'1613.9
2014-Apr-17 01:23N 49°36' W 002°08'1316.0
2014-Apr-17 00:33N 49°48' W 001°58'1616.0
2014-Apr-16 23:33N 50°01' W 001°45'1514.8
2014-Apr-16 22:33N 50°14' W 001°33'1414.0
2014-Apr-16 21:34N 50°25' W 001°20'1312.7
2014-Apr-16 20:34N 50°36' W 001°08'1111.4
2014-Apr-16 19:34N 50°47' W 001°06'2 1.7
2014-Apr-16 18:32N 50°49' W 001°06'0 0.0
2014-Apr-16 17:32N 50°49' W 001°06'0 0.0
2014-Apr-16 16:32N 50°49' W 001°06'0 0.1
2014-Apr-16 15:33N 50°49' W 001°06'0 0.0
2014-Apr-16 14:33N 50°49' W 001°06'0 0.0
2014-Apr-16 13:33N 50°49' W 001°06'0 0.0
2014-Apr-16 12:33N 50°49' W 001°06'0 0.0
2014-Apr-16 11:33N 50°49' W 001°06'0 0.0
2014-Apr-16 10:33N 50°49' W 001°06'0 0.0
2014-Apr-16 09:33N 50°49' W 001°06'0 0.0
2014-Apr-16 08:33N 50°49' W 001°06'0 0.0
2014-Apr-16 07:33N 50°49' W 001°06'0 0.0
2014-Apr-16 06:33N 50°49' W 001°06'10 9.6
2014-Apr-16 05:33N 50°40' W 000°60'1616.5
2014-Apr-16 04:33N 50°27' W 001°16'26 0.9
2014-Apr-14 22:33N 50°07' W 001°42'1212.5
2014-Apr-14 21:34N 50°17' W 001°29'1111.0
2014-Apr-14 20:34N 50°25' W 001°19'1313.1
2014-Apr-14 19:34N 50°36' W 001°08'1111.3
2014-Apr-14 18:34N 50°48' W 001°07'1 1.2
2014-Apr-14 17:31N 50°49' W 001°06'0 0.0
2014-Apr-14 16:34N 50°49' W 001°06'9 8.5
2014-Apr-14 15:34N 50°40' W 001°04'1818.3
2014-Apr-14 14:34N 50°27' W 001°24'1818.0
2014-Apr-14 13:34N 50°13' W 001°41'9 0.6
2014-Apr-13 22:33N 50°17' W 001°29'1111.2
2014-Apr-13 21:33N 50°26' W 001°18'1413.6
2014-Apr-13 20:33N 50°37' W 001°07'1111.4
2014-Apr-13 19:33N 50°49' W 001°06'0 0.4
2014-Apr-13 18:33N 50°49' W 001°06'0 0.0
2014-Apr-13 17:33N 50°49' W 001°06'7 7.2
2014-Apr-13 16:33N 50°42' W 001°03'1918.8
2014-Apr-13 15:33N 50°26' W 001°19'1818.5
2014-Apr-13 14:33N 50°12' W 001°38'4 0.3
2014-Apr-12 23:23N 50°08' W 001°39'1012.0
2014-Apr-12 22:33N 50°16' W 001°30'1111.4
2014-Apr-12 21:33N 50°25' W 001°19'1110.8
2014-Apr-12 20:33N 50°34' W 001°10'1212.4
2014-Apr-12 19:34N 50°46' W 001°05'3 2.6
2014-Apr-12 18:33N 50°49' W 001°06'0 0.0
2014-Apr-12 17:33N 50°49' W 001°06'5 5.0
2014-Apr-12 16:34N 50°44' W 001°04'1818.0
2014-Apr-12 15:33N 50°28' W 001°18'7317.7
2014-Apr-12 11:26N 49°25' W 002°15'4217.6
2014-Apr-12 09:03N 48°44' W 002°08'32 5.7
2014-Apr-12 03:33N 49°14' W 002°21'6214.0
2014-Apr-11 23:07N 50°09' W 001°38'713.1
2014-Apr-11 22:34N 50°15' W 001°32'1312.6
2014-Apr-11 21:33N 50°26' W 001°20'1211.9
2014-Apr-11 20:33N 50°35' W 001°09'1211.5
2014-Apr-11 19:33N 50°47' W 001°06'2 2.1
2014-Apr-11 18:33N 50°49' W 001°06'0 0.0
2014-Apr-11 17:33N 50°49' W 001°06'7 7.4
2014-Apr-11 16:34N 50°42' W 001°03'2019.9
2014-Apr-11 15:33N 50°25' W 001°19'17 1.0
2014-Apr-10 22:29N 50°12' W 001°35'1213.1
2014-Apr-10 21:33N 50°22' W 001°24'1414.1
2014-Apr-10 20:33N 50°33' W 001°11'1313.4
2014-Apr-10 19:34N 50°46' W 001°05'3 2.7
2014-Apr-10 18:31N 50°49' W 001°06'0 0.0
2014-Apr-10 17:31N 50°49' W 001°06'5 5.5
2014-Apr-10 16:33N 50°44' W 001°03'1716.6
2014-Apr-10 15:33N 50°29' W 001°16'1817.7
2014-Apr-10 14:34N 50°15' W 001°33'2 0.1
2014-Apr-09 22:33N 50°13' W 001°34'1312.8
2014-Apr-09 21:33N 50°23' W 001°22'1414.2
2014-Apr-09 20:33N 50°35' W 001°10'1312.8
2014-Apr-09 19:33N 50°47' W 001°07'1 1.3
2014-Apr-09 18:33N 50°49' W 001°06'0 0.0
2014-Apr-09 17:33N 50°49' W 001°06'0 0.0
2014-Apr-09 16:33N 50°49' W 001°06'0 0.1
2014-Apr-09 15:33N 50°49' W 001°06'0 0.0
2014-Apr-09 14:33N 50°49' W 001°06'0 0.0
2014-Apr-09 13:33N 50°49' W 001°06'0 0.0
2014-Apr-09 12:33N 50°49' W 001°06'0 0.0
2014-Apr-09 11:33N 50°49' W 001°06'0 0.0
2014-Apr-09 10:33N 50°49' W 001°06'0 0.0
2014-Apr-09 09:33N 50°49' W 001°06'0 0.0
2014-Apr-09 08:33N 50°49' W 001°06'0 0.0
2014-Apr-09 07:33N 50°49' W 001°06'0 0.0
2014-Apr-09 06:33N 50°49' W 001°06'1110.9
2014-Apr-09 05:33N 50°38' W 001°07'1615.9
2014-Apr-09 04:33N 50°25' W 001°21'1313.4
2014-Apr-09 03:33N 50°13' W 001°32'  

Dump ship's entire track history

sailing weather and tide predictions

Bretagne — FNBR — position and weather